Time;durP1;ratioP1;P1;durP2;ratioP2;P2;SDS_P1;SDS_P2;PMS_P1;PMS_P2;Temp;Humidity;BMP_temperature;BMP_pressure;BME280_temperature;BME280_humidity;BME280_pressure;Samples;Min_cycle;Max_cycle;Signal;HPM_P1;HPM_P2
2022/05/18 00:00:11;;;;;;;6.00;5.40;;;;;;;;;;5035936;28;20276;-87
2022/05/18 00:02:40;;;;;;;6.33;5.83;;;;;;;;;;5035632;28;20194;-87
2022/05/18 00:05:08;;;;;;;9.40;6.70;;;;;;;;;;5035788;28;20278;-87
2022/05/18 00:07:35;;;;;;;6.37;5.70;;;;;;;;;;5035402;28;20313;-87
2022/05/18 00:10:03;;;;;;;5.87;5.37;;;;;;;;;;5035604;28;20205;-86
2022/05/18 00:12:30;;;;;;;6.03;5.57;;;;;;;;;;5035273;28;20209;-87
2022/05/18 00:14:58;;;;;;;6.53;6.03;;;;;;;;;;5035511;28;20273;-87
2022/05/18 00:17:27;;;;;;;7.37;5.97;;;;;;;;;;5035595;28;20224;-87
2022/05/18 00:19:54;;;;;;;6.80;6.10;;;;;;;;;;5035332;28;20586;-87
2022/05/18 00:22:21;;;;;;;6.23;5.73;;;;;;;;;;5034976;28;20198;-86
2022/05/18 00:24:48;;;;;;;9.73;5.83;;;;;;;;;;5035179;28;20224;-86
2022/05/18 00:27:16;;;;;;;5.53;5.07;;;;;;;;;;5035311;28;20286;-86
2022/05/18 00:29:43;;;;;;;4.60;4.13;;;;;;;;;;5034753;28;20254;-86
2022/05/18 00:32:10;;;;;;;4.10;3.70;;;;;;;;;;5034794;28;20213;-86
2022/05/18 00:34:39;;;;;;;4.67;3.73;;;;;;;;;;5034808;28;20201;-87
2022/05/18 00:37:06;;;;;;;6.67;3.40;;;;;;;;;;5035272;28;20201;-87
2022/05/18 00:39:34;;;;;;;6.63;3.73;;;;;;;;;;5035012;28;20651;-87
2022/05/18 00:42:01;;;;;;;3.97;3.57;;;;;;;;;;5035263;28;20200;-87
2022/05/18 00:44:28;;;;;;;4.97;3.17;;;;;;;;;;5034995;28;20197;-87
2022/05/18 00:46:55;;;;;;;3.60;3.30;;;;;;;;;;5035010;28;20204;-86
2022/05/18 00:49:23;;;;;;;3.20;3.00;;;;;;;;;;5034459;28;20235;-87
2022/05/18 00:51:55;;;;;;;3.30;3.00;;;;;;;;;;5033585;28;20676;-87
2022/05/18 00:54:24;;;;;;;3.97;3.67;;;;;;;;;;5034433;28;20195;-86
2022/05/18 00:56:54;;;;;;;3.73;3.23;;;;;;;;;;5034548;28;20203;-86
2022/05/18 00:59:25;;;;;;;3.03;2.83;;;;;;;;;;5034820;28;20217;-86
2022/05/18 01:01:54;;;;;;;3.33;3.13;;;;;;;;;;5034366;28;20189;-86
2022/05/18 01:04:22;;;;;;;3.37;2.37;;;;;;;;;;5034434;28;20888;-86
2022/05/18 01:06:55;;;;;;;3.10;2.60;;;;;;;;;;5034062;28;20199;-86
2022/05/18 01:09:25;;;;;;;2.50;2.30;;;;;;;;;;5034355;28;20220;-87
2022/05/18 01:11:53;;;;;;;2.23;2.10;;;;;;;;;;5034357;28;20252;-87
2022/05/18 01:14:22;;;;;;;2.00;1.90;;;;;;;;;;5034202;28;20290;-87
2022/05/18 01:16:51;;;;;;;2.23;2.03;;;;;;;;;;5034148;28;20208;-86
2022/05/18 01:19:23;;;;;;;2.20;1.80;;;;;;;;;;5034418;28;20209;-87
2022/05/18 01:21:55;;;;;;;2.30;2.00;;;;;;;;;;5034473;28;20193;-87
2022/05/18 01:24:28;;;;;;;2.00;1.90;;;;;;;;;;5033817;28;20232;-87
2022/05/18 01:26:58;;;;;;;1.60;1.50;;;;;;;;;;5034024;28;20190;-87
2022/05/18 01:29:26;;;;;;;1.80;1.70;;;;;;;;;;5033904;28;20222;-87
2022/05/18 01:31:58;;;;;;;1.77;1.63;;;;;;;;;;5033848;28;20241;-87
2022/05/18 01:34:28;;;;;;;1.77;1.67;;;;;;;;;;5034065;28;20185;-87
2022/05/18 01:36:55;;;;;;;1.40;1.30;;;;;;;;;;5033820;28;20206;-87
2022/05/18 01:39:25;;;;;;;4.13;2.30;;;;;;;;;;5034131;28;20274;-87
2022/05/18 01:41:59;;;;;;;3.43;2.80;;;;;;;;;;5033802;28;20186;-88
2022/05/18 01:44:27;;;;;;;3.70;2.47;;;;;;;;;;5033668;28;20192;-87
2022/05/18 01:46:54;;;;;;;2.70;2.50;;;;;;;;;;5034204;28;20659;-87
2022/05/18 01:49:21;;;;;;;3.77;2.93;;;;;;;;;;5033708;28;20225;-87
2022/05/18 01:51:53;;;;;;;2.90;2.70;;;;;;;;;;5033586;28;20198;-87
2022/05/18 01:54:20;;;;;;;3.40;2.50;;;;;;;;;;5033737;28;20186;-87
2022/05/18 01:56:48;;;;;;;4.30;2.60;;;;;;;;;;5033673;28;20203;-87
2022/05/18 01:59:17;;;;;;;2.77;2.50;;;;;;;;;;5033323;28;20204;-87
2022/05/18 02:01:44;;;;;;;2.50;2.30;;;;;;;;;;5033645;28;20581;-86
2022/05/18 02:04:12;;;;;;;2.13;1.90;;;;;;;;;;5033032;28;20726;-87
2022/05/18 02:06:40;;;;;;;2.67;2.47;;;;;;;;;;5033201;28;20202;-86
2022/05/18 02:09:07;;;;;;;2.53;2.30;;;;;;;;;;5033045;28;20229;-87
2022/05/18 02:11:35;;;;;;;3.10;2.47;;;;;;;;;;5033342;28;20206;-87
2022/05/18 02:14:03;;;;;;;2.60;2.33;;;;;;;;;;5033149;28;20717;-86
2022/05/18 02:16:31;;;;;;;2.20;2.10;;;;;;;;;;5033120;28;20208;-87
2022/05/18 02:18:59;;;;;;;2.63;2.43;;;;;;;;;;5033139;28;20198;-86
2022/05/18 02:21:26;;;;;;;2.90;2.30;;;;;;;;;;5033178;28;20202;-86
2022/05/18 02:23:53;;;;;;;2.80;2.60;;;;;;;;;;5032754;28;20277;-87
2022/05/18 02:26:21;;;;;;;3.77;2.40;;;;;;;;;;5033455;28;20617;-87
2022/05/18 02:28:48;;;;;;;2.70;2.50;;;;;;;;;;5033072;28;20673;-87
2022/05/18 02:31:16;;;;;;;2.27;2.10;;;;;;;;;;5032840;28;20205;-87
2022/05/18 02:33:44;;;;;;;2.50;2.10;;;;;;;;;;5032741;28;20203;-87
2022/05/18 02:36:12;;;;;;;2.50;2.07;;;;;;;;;;5032886;28;20212;-87
2022/05/18 02:38:40;;;;;;;2.00;1.90;;;;;;;;;;5032952;28;20251;-87
2022/05/18 02:41:07;;;;;;;2.30;2.17;;;;;;;;;;5032557;28;20292;-87
2022/05/18 02:43:37;;;;;;;2.00;1.90;;;;;;;;;;5032492;28;20208;-86
2022/05/18 02:46:07;;;;;;;5.47;2.23;;;;;;;;;;5032701;28;20203;-87
2022/05/18 02:48:34;;;;;;;2.30;2.10;;;;;;;;;;5032751;28;20238;-86
2022/05/18 02:51:03;;;;;;;1.63;1.53;;;;;;;;;;5032686;28;20206;-87
2022/05/18 02:53:31;;;;;;;4.00;2.50;;;;;;;;;;5032795;28;20248;-87
2022/05/18 02:56:06;;;;;;;2.07;1.90;;;;;;;;;;5032424;28;20292;-87
2022/05/18 02:58:35;;;;;;;2.33;2.03;;;;;;;;;;5032494;28;20251;-87
2022/05/18 03:01:03;;;;;;;1.90;1.80;;;;;;;;;;5032673;28;20671;-86
2022/05/18 03:03:30;;;;;;;1.77;1.67;;;;;;;;;;5032719;28;20228;-87
2022/05/18 03:05:58;;;;;;;1.70;1.60;;;;;;;;;;5032347;28;20583;-86
2022/05/18 03:08:26;;;;;;;2.00;1.80;;;;;;;;;;5032240;28;20229;-86
2022/05/18 03:10:54;;;;;;;1.73;1.63;;;;;;;;;;5032167;28;20685;-87
2022/05/18 03:13:21;;;;;;;1.77;1.67;;;;;;;;;;5032213;28;20295;-86
2022/05/18 03:15:48;;;;;;;1.90;1.80;;;;;;;;;;5034152;28;20670;-87
2022/05/18 03:18:15;;;;;;;2.07;1.97;;;;;;;;;;5036343;28;20197;-88
2022/05/18 03:23:36;;;;;;;2.17;2.07;;;;;;;;;;5032165;28;20645;-86
2022/05/18 03:26:05;;;;;;;2.23;2.13;;;;;;;;;;5016236;28;20226;-86
2022/05/18 03:28:33;;;;;;;2.03;1.93;;;;;;;;;;5016253;28;20235;-87
2022/05/18 03:31:00;;;;;;;4.57;2.00;;;;;;;;;;5016786;28;20197;-87
2022/05/18 03:33:27;;;;;;;2.60;2.00;;;;;;;;;;5028636;28;20204;-87
2022/05/18 03:35:55;;;;;;;2.53;1.80;;;;;;;;;;5036146;28;20669;-87
2022/05/18 03:38:23;;;;;;;1.90;1.80;;;;;;;;;;5035929;28;20255;-86
2022/05/18 03:40:51;;;;;;;2.03;1.83;;;;;;;;;;5035479;28;20210;-86
2022/05/18 03:43:19;;;;;;;1.63;1.53;;;;;;;;;;5035923;28;20257;-86
2022/05/18 03:45:47;;;;;;;2.20;1.83;;;;;;;;;;5035767;28;20192;-85
2022/05/18 03:48:15;;;;;;;2.17;1.77;;;;;;;;;;5035879;28;20212;-86
2022/05/18 03:50:46;;;;;;;2.50;1.60;;;;;;;;;;5035241;28;20201;-87
2022/05/18 03:53:14;;;;;;;1.80;1.70;;;;;;;;;;5035512;28;20578;-84
2022/05/18 03:55:43;;;;;;;3.87;1.93;;;;;;;;;;5035683;28;20204;-87
2022/05/18 03:58:12;;;;;;;2.00;1.90;;;;;;;;;;5039492;28;20201;-86
2022/05/18 04:00:41;;;;;;;1.80;1.70;;;;;;;;;;5055765;28;20620;-87
2022/05/18 04:03:09;;;;;;;2.00;1.90;;;;;;;;;;5055614;28;20207;-86
2022/05/18 04:05:38;;;;;;;1.80;1.70;;;;;;;;;;5055251;28;20204;-87
2022/05/18 04:08:06;;;;;;;3.43;2.00;;;;;;;;;;5055570;28;20581;-86
2022/05/18 04:10:33;;;;;;;2.20;2.10;;;;;;;;;;5055132;28;20228;-85
2022/05/18 04:13:01;;;;;;;2.27;2.07;;;;;;;;;;5055043;28;20203;-86
2022/05/18 04:15:30;;;;;;;2.57;2.37;;;;;;;;;;5041143;28;20304;-87
2022/05/18 04:17:58;;;;;;;3.73;2.53;;;;;;;;;;5035027;28;20260;-85
2022/05/18 04:20:26;;;;;;;2.60;2.40;;;;;;;;;;5035072;28;20646;-85
2022/05/18 04:22:54;;;;;;;2.80;2.27;;;;;;;;;;5025547;28;20233;-85
2022/05/18 04:25:40;;;;;;;;;;;;;;;;;;;;;
2022/05/18 04:28:08;;;;;;;2.00;1.80;;;;;;;;;;4964578;28;20196;-85
2022/05/18 04:30:37;;;;;;;1.83;1.73;;;;;;;;;;5014563;28;20222;-85
2022/05/18 04:33:04;;;;;;;2.00;1.90;;;;;;;;;;5014582;28;20214;-84
2022/05/18 04:35:31;;;;;;;2.50;1.83;;;;;;;;;;5014468;28;20206;-84
2022/05/18 04:37:59;;;;;;;2.00;1.90;;;;;;;;;;5014553;28;20205;-83
2022/05/18 04:40:26;;;;;;;2.33;2.13;;;;;;;;;;5014781;28;20299;-84
2022/05/18 04:42:53;;;;;;;2.87;2.03;;;;;;;;;;5026162;28;20654;-84
2022/05/18 04:45:22;;;;;;;1.73;1.63;;;;;;;;;;5026905;28;20216;-85
2022/05/18 04:47:51;;;;;;;1.60;1.37;;;;;;;;;;5034036;28;20210;-84
2022/05/18 04:50:20;;;;;;;11.27;2.67;;;;;;;;;;5034111;28;20721;-84
2022/05/18 04:52:47;;;;;;;2.60;1.80;;;;;;;;;;5034136;28;20206;-84
2022/05/18 04:55:14;;;;;;;1.90;1.80;;;;;;;;;;5033943;28;20208;-84
2022/05/18 04:57:42;;;;;;;1.90;1.80;;;;;;;;;;5030408;28;20201;-84
2022/05/18 05:00:14;;;;;;;4.10;1.80;;;;;;;;;;5022119;28;20214;-84
2022/05/18 05:02:41;;;;;;;1.80;1.67;;;;;;;;;;5014176;28;20201;-84
2022/05/18 05:05:13;;;;;;;1.57;1.47;;;;;;;;;;5014092;28;20207;-84
2022/05/18 05:07:40;;;;;;;4.90;1.67;;;;;;;;;;5014395;28;20700;-83
2022/05/18 05:10:08;;;;;;;1.40;1.30;;;;;;;;;;5013576;28;20226;-84
2022/05/18 05:12:36;;;;;;;1.90;1.80;;;;;;;;;;5014284;28;20633;-84
2022/05/18 05:15:03;;;;;;;2.00;1.90;;;;;;;;;;5014036;28;20268;-84
2022/05/18 05:17:31;;;;;;;1.87;1.77;;;;;;;;;;5018630;28;20207;-83
2022/05/18 05:19:59;;;;;;;1.80;1.70;;;;;;;;;;5033233;28;20236;-84
2022/05/18 05:22:28;;;;;;;4.13;2.17;;;;;;;;;;5033557;28;20237;-84
2022/05/18 05:24:55;;;;;;;2.13;1.93;;;;;;;;;;5033346;28;20658;-84
2022/05/18 05:27:22;;;;;;;1.87;1.67;;;;;;;;;;5033803;28;20198;-84
2022/05/18 05:29:49;;;;;;;4.90;1.80;;;;;;;;;;5033114;28;20227;-84
2022/05/18 05:32:17;;;;;;;2.13;1.97;;;;;;;;;;5033363;28;20206;-83
2022/05/18 05:34:45;;;;;;;1.87;1.77;;;;;;;;;;5033100;28;20209;-84
2022/05/18 05:37:12;;;;;;;1.90;1.80;;;;;;;;;;5033525;28;20629;-83
2022/05/18 05:39:41;;;;;;;2.30;2.20;;;;;;;;;;5032699;28;20225;-82
2022/05/18 05:42:09;;;;;;;1.90;1.80;;;;;;;;;;5033488;28;20205;-84
2022/05/18 05:44:36;;;;;;;2.10;2.00;;;;;;;;;;5033301;28;20867;-84
2022/05/18 05:47:04;;;;;;;2.40;2.20;;;;;;;;;;5032937;28;20206;-84
2022/05/18 05:49:31;;;;;;;3.93;3.30;;;;;;;;;;5029752;28;20281;-83
2022/05/18 05:51:58;;;;;;;3.47;3.27;;;;;;;;;;5023497;28;20206;-84
2022/05/18 05:54:26;;;;;;;3.70;3.40;;;;;;;;;;5032773;28;20234;-84
2022/05/18 05:56:56;;;;;;;3.77;3.40;;;;;;;;;;5015032;28;20660;-83
2022/05/18 05:59:23;;;;;;;4.40;4.00;;;;;;;;;;5012606;28;20614;-84
2022/05/18 06:01:50;;;;;;;5.87;4.27;;;;;;;;;;5013269;28;20218;-83
2022/05/18 06:04:18;;;;;;;4.30;3.90;;;;;;;;;;5012782;28;20207;-84
2022/05/18 06:06:45;;;;;;;4.97;4.53;;;;;;;;;;5012959;28;20196;-84
2022/05/18 06:09:12;;;;;;;5.80;4.50;;;;;;;;;;5012514;28;20214;-84
2022/05/18 06:11:40;;;;;;;7.87;4.47;;;;;;;;;;5012764;28;20208;-83
2022/05/18 06:14:09;;;;;;;4.93;4.53;;;;;;;;;;5012750;28;20295;-84
2022/05/18 06:16:36;;;;;;;7.43;5.20;;;;;;;;;;5012727;28;20281;-84
2022/05/18 06:19:03;;;;;;;5.37;4.23;;;;;;;;;;5012480;28;20196;-84
2022/05/18 06:21:30;;;;;;;9.97;5.90;;;;;;;;;;5012897;28;20282;-84
2022/05/18 06:23:58;;;;;;;4.13;3.80;;;;;;;;;;5012472;28;20242;-83
2022/05/18 06:26:26;;;;;;;5.03;4.63;;;;;;;;;;5012490;28;20211;-84
2022/05/18 06:28:53;;;;;;;4.90;3.40;;;;;;;;;;5012755;28;20199;-84
2022/05/18 06:31:21;;;;;;;9.67;4.40;;;;;;;;;;5012246;28;20234;-84
2022/05/18 06:33:49;;;;;;;5.70;4.77;;;;;;;;;;5012813;28;20690;-83
2022/05/18 06:36:16;;;;;;;6.30;4.63;;;;;;;;;;5012328;28;20210;-84
2022/05/18 06:38:43;;;;;;;4.43;4.03;;;;;;;;;;5012193;28;20195;-84
2022/05/18 06:41:22;;;;;;;5.47;4.80;;;;;;;;;;5012402;28;20195;-83
2022/05/18 06:43:50;;;;;;;4.30;3.90;;;;;;;;;;5012314;28;20192;-84
2022/05/18 06:46:18;;;;;;;8.60;4.70;;;;;;;;;;5012027;28;20203;-84
2022/05/18 06:48:46;;;;;;;4.80;4.17;;;;;;;;;;5012879;28;20339;-84
2022/05/18 06:51:14;;;;;;;4.47;4.17;;;;;;;;;;5011256;28;20230;-84
2022/05/18 06:53:42;;;;;;;8.47;4.23;;;;;;;;;;5012126;28;20203;-84
2022/05/18 06:56:09;;;;;;;5.67;3.80;;;;;;;;;;5011831;28;20245;-85
2022/05/18 06:58:36;;;;;;;4.40;4.00;;;;;;;;;;5012182;28;20202;-84
2022/05/18 07:01:07;;;;;;;3.60;3.30;;;;;;;;;;5012047;28;20688;-84
2022/05/18 07:03:34;;;;;;;3.30;3.03;;;;;;;;;;5012558;28;20704;-84
2022/05/18 07:06:03;;;;;;;4.00;3.30;;;;;;;;;;5012289;28;20226;-84
2022/05/18 07:08:31;;;;;;;3.50;3.20;;;;;;;;;;5012313;28;20255;-84
2022/05/18 07:10:58;;;;;;;5.70;2.87;;;;;;;;;;5012023;28;20231;-84
2022/05/18 07:13:25;;;;;;;3.33;3.03;;;;;;;;;;5012069;28;20199;-85
2022/05/18 07:15:53;;;;;;;3.33;2.80;;;;;;;;;;5011673;28;20204;-84
2022/05/18 07:18:20;;;;;;;2.70;2.50;;;;;;;;;;5012136;28;20207;-85
2022/05/18 07:20:49;;;;;;;2.80;2.60;;;;;;;;;;5012057;28;20195;-84
2022/05/18 07:23:17;;;;;;;4.37;2.87;;;;;;;;;;5011802;28;20837;-84
2022/05/18 07:25:45;;;;;;;3.37;2.70;;;;;;;;;;5011884;28;20199;-84
2022/05/18 07:28:12;;;;;;;4.20;3.47;;;;;;;;;;5012008;28;20195;-84
2022/05/18 07:30:39;;;;;;;2.60;2.40;;;;;;;;;;5011997;28;20223;-84
2022/05/18 07:33:06;;;;;;;2.47;2.30;;;;;;;;;;5011978;28;20624;-84
2022/05/18 07:35:34;;;;;;;8.40;2.93;;;;;;;;;;5011354;28;20253;-84
2022/05/18 07:38:01;;;;;;;2.27;2.10;;;;;;;;;;5012044;28;20196;-84
2022/05/18 07:40:30;;;;;;;4.40;2.50;;;;;;;;;;5012201;28;20196;-84
2022/05/18 07:42:58;;;;;;;2.57;2.37;;;;;;;;;;5011967;28;20199;-84
2022/05/18 07:45:25;;;;;;;3.40;2.10;;;;;;;;;;5011623;28;20204;-84
2022/05/18 07:47:52;;;;;;;2.30;2.07;;;;;;;;;;5011780;28;20206;-84
2022/05/18 07:50:20;;;;;;;2.30;2.10;;;;;;;;;;5011484;28;20285;-85
2022/05/18 07:52:47;;;;;;;2.13;2.03;;;;;;;;;;5011702;28;20203;-84
2022/05/18 07:55:14;;;;;;;2.47;2.27;;;;;;;;;;5011406;28;20204;-84
2022/05/18 07:57:43;;;;;;;2.27;2.10;;;;;;;;;;5012006;28;20199;-84
2022/05/18 08:00:15;;;;;;;3.80;2.40;;;;;;;;;;5011553;28;20254;-84
2022/05/18 08:02:42;;;;;;;3.00;2.40;;;;;;;;;;5014369;28;20187;-85
2022/05/18 08:05:10;;;;;;;2.90;2.30;;;;;;;;;;5014984;28;20195;-84
2022/05/18 08:07:39;;;;;;;2.07;1.97;;;;;;;;;;5015396;28;20207;-84
2022/05/18 08:15:46;;;;;;;3.40;2.67;;;;;;;;;;4979713;28;20281;-83
2022/05/18 08:18:15;;;;;;;3.20;2.80;;;;;;;;;;5015111;28;20206;-85
2022/05/18 08:20:43;;;;;;;3.83;2.70;;;;;;;;;;5014738;28;20200;-83
2022/05/18 08:23:10;;;;;;;3.10;2.90;;;;;;;;;;5015328;28;20284;-84
2022/05/18 08:25:38;;;;;;;2.63;2.43;;;;;;;;;;5014752;28;20211;-84
2022/05/18 08:28:08;;;;;;;4.63;2.73;;;;;;;;;;5015106;28;20628;-84
2022/05/18 08:30:35;;;;;;;3.40;2.63;;;;;;;;;;5014408;28;20723;-84
2022/05/18 08:33:03;;;;;;;3.80;3.03;;;;;;;;;;5014862;28;20673;-84
2022/05/18 08:35:31;;;;;;;5.17;2.70;;;;;;;;;;5014861;28;20203;-84
2022/05/18 08:37:58;;;;;;;3.13;2.80;;;;;;;;;;5014644;28;20673;-84
2022/05/18 08:40:38;;;;;;;5.83;2.77;;;;;;;;;;5014419;28;20191;-84
2022/05/18 08:43:09;;;;;;;2.90;2.70;;;;;;;;;;5014909;28;20566;-84
2022/05/18 08:45:38;;;;;;;3.23;2.63;;;;;;;;;;5014460;28;20191;-84
2022/05/18 08:48:09;;;;;;;4.83;2.67;;;;;;;;;;5014368;28;20246;-84
2022/05/18 08:50:38;;;;;;;2.70;2.50;;;;;;;;;;5014040;28;20204;-84
2022/05/18 08:53:21;;;;;;;2.90;2.70;;;;;;;;;;5014641;28;20582;-84
2022/05/18 08:55:58;;;;;;;3.03;2.83;;;;;;;;;;5014173;28;20195;-83
2022/05/18 08:58:39;;;;;;;5.50;2.87;;;;;;;;;;5014381;28;20188;-84
2022/05/18 09:01:11;;;;;;;3.07;2.87;;;;;;;;;;5014038;28;20183;-84
2022/05/18 09:03:40;;;;;;;3.17;2.97;;;;;;;;;;5014199;28;20191;-83
2022/05/18 09:06:11;;;;;;;3.70;2.50;;;;;;;;;;5014041;28;20207;-84
2022/05/18 09:08:40;;;;;;;3.10;2.90;;;;;;;;;;5014073;28;20192;-84
2022/05/18 09:11:09;;;;;;;3.50;2.60;;;;;;;;;;5014070;28;20231;-84
2022/05/18 09:13:39;;;;;;;1.93;1.73;;;;;;;;;;5013382;28;20282;-84
2022/05/18 09:16:15;;;;;;;1.50;1.40;;;;;;;;;;5013659;28;20195;-84
2022/05/18 09:18:45;;;;;;;1.87;1.10;;;;;;;;;;5013873;28;20187;-84
2022/05/18 09:21:21;;;;;;;0.90;0.90;;;;;;;;;;5013717;28;20179;-84
2022/05/18 09:23:58;;;;;;;0.70;0.70;;;;;;;;;;5013539;28;20317;-84
2022/05/18 09:26:48;;;;;;;0.70;0.70;;;;;;;;;;5013494;28;20276;-83
2022/05/18 09:29:24;;;;;;;0.67;0.67;;;;;;;;;;5013807;28;20192;-84
2022/05/18 09:32:01;;;;;;;0.70;0.70;;;;;;;;;;5013956;28;20634;-84
2022/05/18 09:34:42;;;;;;;0.43;0.43;;;;;;;;;;5013467;28;20192;-85
2022/05/18 09:37:27;;;;;;;3.03;0.43;;;;;;;;;;5013597;28;20199;-84
2022/05/18 09:39:59;;;;;;;0.63;0.40;;;;;;;;;;5013731;28;20193;-84
2022/05/18 09:42:29;;;;;;;0.33;0.33;;;;;;;;;;5013732;28;20663;-85
2022/05/18 09:45:01;;;;;;;0.30;0.30;;;;;;;;;;5013561;28;20673;-83
2022/05/18 09:47:29;;;;;;;0.40;0.40;;;;;;;;;;5013629;28;20232;-84
2022/05/18 09:49:58;;;;;;;2.57;0.30;;;;;;;;;;5012950;28;20202;-84
2022/05/18 09:52:27;;;;;;;1.40;0.40;;;;;;;;;;5013146;28;20228;-85
2022/05/18 09:54:57;;;;;;;3.77;0.50;;;;;;;;;;5013082;28;20239;-84
2022/05/18 09:57:28;;;;;;;2.43;0.67;;;;;;;;;;5013091;28;20207;-85
2022/05/18 09:59:59;;;;;;;0.20;0.20;;;;;;;;;;5008298;28;20215;-84
2022/05/18 10:08:00;;;;;;;0.30;0.30;;;;;;;;;;5013436;28;20676;-85
2022/05/18 10:10:30;;;;;;;0.20;0.20;;;;;;;;;;5013153;28;20202;-85
2022/05/18 10:13:05;;;;;;;0.63;0.30;;;;;;;;;;5012974;28;20222;-85
2022/05/18 10:15:37;;;;;;;0.30;0.30;;;;;;;;;;5012908;28;20183;-85
2022/05/18 10:18:18;;;;;;;0.30;0.30;;;;;;;;;;5013277;28;20324;-85
2022/05/18 10:21:01;;;;;;;0.20;0.20;;;;;;;;;;5012948;28;20237;-84
2022/05/18 10:23:33;;;;;;;1.60;0.63;;;;;;;;;;5012787;28;20240;-84
2022/05/18 10:26:00;;;;;;;0.30;0.30;;;;;;;;;;5012342;28;20250;-84
2022/05/18 10:28:29;;;;;;;1.80;0.40;;;;;;;;;;5012460;28;20204;-85
2022/05/18 10:31:00;;;;;;;0.50;0.50;;;;;;;;;;5012468;28;20234;-84
2022/05/18 10:33:33;;;;;;;0.40;0.40;;;;;;;;;;5012464;28;20192;-84
2022/05/18 10:36:10;;;;;;;1.87;0.50;;;;;;;;;;5012470;28;20590;-84
2022/05/18 11:02:21;;;;;;;0.47;0.47;;;;;;;;;;5065791;28;20572;-79
2022/05/18 11:04:53;;;;;;;0.60;0.60;;;;;;;;;;5066033;28;20204;-78
2022/05/18 11:07:22;;;;;;;0.40;0.40;;;;;;;;;;5065836;28;20288;-78
2022/05/18 11:09:49;;;;;;;0.40;0.40;;;;;;;;;;5065394;28;20273;-78
2022/05/18 11:12:32;;;;;;;0.50;0.50;;;;;;;;;;5065778;28;20576;-78
2022/05/18 11:15:12;;;;;;;2.33;0.40;;;;;;;;;;5065539;28;20185;-78
2022/05/18 11:17:50;;;;;;;3.80;0.70;;;;;;;;;;5065477;28;20220;-79
2022/05/18 11:20:26;;;;;;;0.43;0.43;;;;;;;;;;5065757;28;20181;-78
2022/05/18 11:23:01;;;;;;;0.53;0.53;;;;;;;;;;5065466;28;20714;-78
2022/05/18 11:25:34;;;;;;;1.13;0.50;;;;;;;;;;5123744;27;20219;-78
2022/05/18 11:28:10;;;;;;;0.63;0.63;;;;;;;;;;5170988;27;20661;-78
2022/05/18 11:30:41;;;;;;;0.50;0.50;;;;;;;;;;5170910;27;20603;-78
2022/05/18 11:33:19;;;;;;;1.07;0.77;;;;;;;;;;5171282;27;20193;-78
2022/05/18 11:35:55;;;;;;;0.53;0.50;;;;;;;;;;5170629;27;20637;-78
2022/05/18 11:39:00;;;;;;;0.60;0.60;;;;;;;;;;5171353;27;20195;-78
2022/05/18 11:41:35;;;;;;;0.60;0.60;;;;;;;;;;5170663;27;20293;-78
2022/05/18 11:44:06;;;;;;;0.50;0.50;;;;;;;;;;5170936;27;20181;-78
2022/05/18 11:47:00;;;;;;;1.60;0.70;;;;;;;;;;5170814;27;20699;-78
2022/05/18 11:49:35;;;;;;;0.70;0.70;;;;;;;;;;5168244;27;20192;-78
2022/05/18 11:52:14;;;;;;;1.50;0.53;;;;;;;;;;5170513;27;20675;-78
2022/05/18 11:54:54;;;;;;;0.50;0.50;;;;;;;;;;5170847;27;20273;-78
2022/05/18 11:57:28;;;;;;;0.70;0.70;;;;;;;;;;5170637;27;20278;-78
2022/05/18 12:00:07;;;;;;;0.90;0.90;;;;;;;;;;5170686;27;20197;-78
2022/05/18 12:03:01;;;;;;;2.50;0.90;;;;;;;;;;5160764;27;20178;-78
2022/05/18 12:05:55;;;;;;;1.90;1.00;;;;;;;;;;5156968;27;20630;-78
2022/05/18 12:08:40;;;;;;;1.23;1.13;;;;;;;;;;5156564;27;20193;-78
2022/05/18 12:11:13;;;;;;;1.00;1.00;;;;;;;;;;5156361;27;20220;-78
2022/05/18 12:13:49;;;;;;;0.83;0.80;;;;;;;;;;5156512;27;20182;-78
2022/05/18 12:16:23;;;;;;;1.60;0.90;;;;;;;;;;5156237;27;20174;-78
2022/05/18 12:18:55;;;;;;;0.70;0.70;;;;;;;;;;5156680;27;20190;-78
2022/05/18 12:21:26;;;;;;;1.10;0.90;;;;;;;;;;5156114;27;20178;-78
2022/05/18 12:23:56;;;;;;;2.90;0.93;;;;;;;;;;5156136;27;20182;-78
2022/05/18 12:26:24;;;;;;;1.97;0.80;;;;;;;;;;5156218;27;20182;-78
2022/05/18 12:28:52;;;;;;;1.87;0.70;;;;;;;;;;5156222;27;20194;-78
2022/05/18 12:31:19;;;;;;;0.80;0.80;;;;;;;;;;5155843;27;20218;-78
2022/05/18 12:33:56;;;;;;;0.77;0.70;;;;;;;;;;5155836;27;20194;-78
2022/05/18 12:36:33;;;;;;;1.00;0.73;;;;;;;;;;5155883;27;20193;-78
2022/05/18 12:39:11;;;;;;;1.57;0.83;;;;;;;;;;5156346;27;20556;-78
2022/05/18 12:41:42;;;;;;;2.13;0.93;;;;;;;;;;5155531;27;20185;-78
2022/05/18 12:44:11;;;;;;;0.60;0.60;;;;;;;;;;5156276;27;20235;-78
2022/05/18 12:46:43;;;;;;;0.50;0.50;;;;;;;;;;5155610;27;20231;-78
2022/05/18 12:49:16;;;;;;;0.70;0.70;;;;;;;;;;5155865;27;20228;-79
2022/05/18 12:52:02;;;;;;;3.00;0.93;;;;;;;;;;5155510;27;20202;-78
2022/05/18 12:54:41;;;;;;;0.60;0.60;;;;;;;;;;5155729;27;20231;-78
2022/05/18 12:57:22;;;;;;;1.77;0.70;;;;;;;;;;5155507;27;20186;-78
2022/05/18 13:00:36;;;;;;;0.60;0.60;;;;;;;;;;5155823;27;20262;-78
2022/05/18 13:03:24;;;;;;;0.60;0.60;;;;;;;;;;5107633;27;20202;-78
2022/05/18 13:05:54;;;;;;;1.40;0.70;;;;;;;;;;5155342;27;20193;-78
2022/05/18 13:09:04;;;;;;;0.63;0.63;;;;;;;;;;5155751;27;20563;-78
2022/05/18 13:11:46;;;;;;;1.17;1.00;;;;;;;;;;5139552;27;20611;-78
2022/05/18 13:14:38;;;;;;;3.20;0.60;;;;;;;;;;5154608;27;20186;-78
2022/05/18 13:17:20;;;;;;;3.87;0.80;;;;;;;;;;5151815;27;20226;-78
2022/05/18 13:19:56;;;;;;;0.93;0.63;;;;;;;;;;5155145;27;20233;-78
2022/05/18 13:22:43;;;;;;;1.13;1.03;;;;;;;;;;5155638;27;20230;-78
2022/05/18 13:25:11;;;;;;;6.20;3.73;;;;;;;;;;5154957;27;20179;-78
2022/05/18 13:27:46;;;;;;;8.17;6.83;;;;;;;;;;5154757;27;20206;-78
2022/05/18 13:30:18;;;;;;;4.67;4.23;;;;;;;;;;5154819;27;20195;-78
2022/05/18 13:32:45;;;;;;;2.70;2.50;;;;;;;;;;5154759;27;20186;-78
2022/05/18 13:35:19;;;;;;;1.77;1.67;;;;;;;;;;5154848;27;20211;-78
2022/05/18 13:37:52;;;;;;;4.87;4.10;;;;;;;;;;5154717;27;20182;-78
2022/05/18 13:40:22;;;;;;;4.60;4.13;;;;;;;;;;5154665;27;20243;-78
2022/05/18 13:42:51;;;;;;;5.07;3.13;;;;;;;;;;5154863;27;20194;-78
2022/05/18 13:45:19;;;;;;;8.13;4.40;;;;;;;;;;5154884;27;20217;-78
2022/05/18 13:47:48;;;;;;;43.83;21.00;;;;;;;;;;5154224;27;20284;-78
2022/05/18 13:50:25;;;;;;;8.20;4.00;;;;;;;;;;5154292;27;20194;-77
2022/05/18 13:52:53;;;;;;;8.47;5.60;;;;;;;;;;5154495;27;20186;-77
2022/05/18 13:55:22;;;;;;;2.50;2.30;;;;;;;;;;5154404;27;20285;-77
2022/05/18 13:57:53;;;;;;;6.20;4.47;;;;;;;;;;5153998;27;20193;-78
2022/05/18 14:00:27;;;;;;;4.03;3.30;;;;;;;;;;5154155;27;20229;-78
2022/05/18 14:02:56;;;;;;;3.17;2.87;;;;;;;;;;5154371;27;20182;-78
2022/05/18 14:05:24;;;;;;;64.70;34.67;;;;;;;;;;5154136;27;20182;-78
2022/05/18 14:07:52;;;;;;;5.87;4.63;;;;;;;;;;5153930;27;20194;-77
2022/05/18 14:10:23;;;;;;;6.50;4.60;;;;;;;;;;5154252;27;20197;-77
2022/05/18 14:12:57;;;;;;;3.90;3.60;;;;;;;;;;5154018;27;20276;-77
2022/05/18 14:15:27;;;;;;;2.30;2.10;;;;;;;;;;5154289;27;20193;-77
2022/05/18 14:17:56;;;;;;;2.20;2.00;;;;;;;;;;5153983;27;20182;-77
2022/05/18 14:20:26;;;;;;;3.40;3.13;;;;;;;;;;5153946;27;20194;-78
2022/05/18 14:22:57;;;;;;;6.40;4.27;;;;;;;;;;5153969;27;20182;-77
2022/05/18 14:25:27;;;;;;;2.40;2.03;;;;;;;;;;5153947;27;20182;-78
2022/05/18 14:27:59;;;;;;;3.40;3.10;;;;;;;;;;5153980;27;20205;-78
2022/05/18 14:30:30;;;;;;;3.43;2.10;;;;;;;;;;5154151;27;20189;-77
2022/05/18 14:33:00;;;;;;;2.80;2.40;;;;;;;;;;5154192;27;20182;-77
2022/05/18 14:35:31;;;;;;;2.10;1.67;;;;;;;;;;5153746;27;20634;-78
2022/05/18 14:38:01;;;;;;;5.20;2.93;;;;;;;;;;5153613;27;20185;-78
2022/05/18 14:40:33;;;;;;;105.00;40.90;;;;;;;;;;5154026;27;20183;-78
2022/05/18 14:43:01;;;;;;;7.63;6.87;;;;;;;;;;5153622;27;20185;-78
2022/05/18 14:45:34;;;;;;;4.97;2.93;;;;;;;;;;5153578;27;20751;-78
2022/05/18 14:48:09;;;;;;;1.87;1.70;;;;;;;;;;5153554;27;20189;-78
2022/05/18 14:50:38;;;;;;;1.67;1.57;;;;;;;;;;5153487;27;20735;-78
2022/05/18 14:53:09;;;;;;;2.20;1.80;;;;;;;;;;5153614;27;20194;-78
2022/05/18 14:55:40;;;;;;;5.37;2.17;;;;;;;;;;5153316;27;20190;-78
2022/05/18 14:58:10;;;;;;;2.53;2.10;;;;;;;;;;5153569;27;20186;-78
2022/05/18 15:00:40;;;;;;;4.20;1.80;;;;;;;;;;5153136;27;20224;-78
2022/05/18 15:03:09;;;;;;;5.77;2.60;;;;;;;;;;5153857;27;20254;-78
2022/05/18 15:05:39;;;;;;;1.97;1.53;;;;;;;;;;5153356;27;20211;-78
2022/05/18 15:08:11;;;;;;;3.93;2.30;;;;;;;;;;5153341;27;20658;-78
2022/05/18 15:10:47;;;;;;;3.80;2.90;;;;;;;;;;5153373;27;20176;-78
2022/05/18 15:13:19;;;;;;;10.33;6.13;;;;;;;;;;5153596;27;20207;-78
2022/05/18 15:15:54;;;;;;;3.60;3.13;;;;;;;;;;5153240;27;20178;-78
2022/05/18 15:18:24;;;;;;;7.23;3.83;;;;;;;;;;5153139;27;20644;-78
2022/05/18 15:20:55;;;;;;;17.50;11.63;;;;;;;;;;5153157;27;20642;-78
2022/05/18 15:23:35;;;;;;;3.23;1.90;;;;;;;;;;5153608;27;20280;-78
2022/05/18 15:26:04;;;;;;;2.73;2.53;;;;;;;;;;5153166;27;20191;-78
2022/05/18 15:28:41;;;;;;;4.93;3.20;;;;;;;;;;5153130;27;20190;-78
2022/05/18 15:31:12;;;;;;;4.07;2.03;;;;;;;;;;5152682;27;20721;-78
2022/05/18 15:33:44;;;;;;;6.03;2.00;;;;;;;;;;5153254;27;20225;-78
2022/05/18 15:36:12;;;;;;;2.20;1.90;;;;;;;;;;5153279;27;20188;-78
2022/05/18 15:38:39;;;;;;;3.30;1.90;;;;;;;;;;5063979;27;20253;-78
2022/05/18 15:41:06;;;;;;;1.70;1.60;;;;;;;;;;5032564;28;20590;-78